sensor_id;sensor_type;location;lat;lon;timestamp;P1;durP1;ratioP1;P2;durP2;ratioP2
44446;SDS011;30152;52.066;5.358;2023-11-22T08:21:06;34.88;;;18.30;;
44446;SDS011;30152;52.066;5.358;2023-11-22T08:23:33;35.42;;;18.63;;
44446;SDS011;30152;52.066;5.358;2023-11-22T08:25:59;56.70;;;29.27;;
44446;SDS011;30152;52.066;5.358;2023-11-22T08:28:25;60.95;;;30.73;;
44446;SDS011;30152;52.066;5.358;2023-11-22T08:30:51;71.78;;;37.78;;
44446;SDS011;30152;52.066;5.358;2023-11-22T08:33:17;73.10;;;36.40;;
44446;SDS011;30152;52.066;5.358;2023-11-22T08:35:42;60.83;;;32.30;;
44446;SDS011;30152;52.066;5.358;2023-11-22T08:38:08;52.78;;;25.15;;
44446;SDS011;30152;52.066;5.358;2023-11-22T08:40:34;61.85;;;27.17;;
44446;SDS011;30152;52.066;5.358;2023-11-22T08:43:02;54.70;;;25.92;;
44446;SDS011;30152;52.066;5.358;2023-11-22T08:45:29;55.88;;;26.15;;
44446;SDS011;30152;52.066;5.358;2023-11-22T08:47:56;53.08;;;27.20;;
44446;SDS011;30152;52.066;5.358;2023-11-22T08:50:22;56.47;;;27.55;;
44446;SDS011;30152;52.066;5.358;2023-11-22T08:52:48;72.68;;;29.80;;
44446;SDS011;30152;52.066;5.358;2023-11-22T08:55:17;56.22;;;25.98;;
44446;SDS011;30152;52.066;5.358;2023-11-22T08:57:48;57.25;;;27.50;;
44446;SDS011;30152;52.066;5.358;2023-11-22T09:00:16;59.53;;;26.05;;
44446;SDS011;30152;52.066;5.358;2023-11-22T09:02:47;52.08;;;24.17;;
44446;SDS011;30152;52.066;5.358;2023-11-22T09:05:13;43.25;;;22.20;;
44446;SDS011;30152;52.066;5.358;2023-11-22T09:07:41;45.25;;;21.75;;
44446;SDS011;30152;52.066;5.358;2023-11-22T09:10:09;38.28;;;19.23;;
44446;SDS011;30152;52.066;5.358;2023-11-22T09:12:38;43.97;;;19.92;;
44446;SDS011;30152;52.066;5.358;2023-11-22T09:15:06;38.88;;;18.38;;
44446;SDS011;30152;52.066;5.358;2023-11-22T09:17:38;43.30;;;18.52;;
44446;SDS011;30152;52.066;5.358;2023-11-22T09:20:10;48.78;;;23.42;;
44446;SDS011;30152;52.066;5.358;2023-11-22T09:22:41;55.87;;;26.90;;
44446;SDS011;30152;52.066;5.358;2023-11-22T09:25:13;61.00;;;27.52;;
44446;SDS011;30152;52.066;5.358;2023-11-22T09:27:44;59.40;;;27.95;;
44446;SDS011;30152;52.066;5.358;2023-11-22T09:30:12;54.17;;;27.00;;
44446;SDS011;30152;52.066;5.358;2023-11-22T09:32:44;55.97;;;27.77;;
44446;SDS011;30152;52.066;5.358;2023-11-22T09:35:11;51.55;;;26.77;;
44446;SDS011;30152;52.066;5.358;2023-11-22T09:37:38;52.00;;;27.25;;
44446;SDS011;30152;52.066;5.358;2023-11-22T09:40:07;54.35;;;27.65;;
44446;SDS011;30152;52.066;5.358;2023-11-22T09:42:34;48.97;;;25.70;;
44446;SDS011;30152;52.066;5.358;2023-11-22T09:44:59;48.55;;;26.17;;
44446;SDS011;30152;52.066;5.358;2023-11-22T09:47:26;50.83;;;26.83;;
44446;SDS011;30152;52.066;5.358;2023-11-22T09:49:52;48.28;;;25.48;;
44446;SDS011;30152;52.066;5.358;2023-11-22T09:52:23;48.55;;;26.35;;
44446;SDS011;30152;52.066;5.358;2023-11-22T09:54:52;50.35;;;26.02;;
44446;SDS011;30152;52.066;5.358;2023-11-22T09:57:18;44.72;;;24.63;;
44446;SDS011;30152;52.066;5.358;2023-11-22T09:59:45;43.25;;;24.25;;
44446;SDS011;30152;52.066;5.358;2023-11-22T10:02:14;45.92;;;25.13;;
44446;SDS011;30152;52.066;5.358;2023-11-22T10:04:40;44.50;;;25.08;;
44446;SDS011;30152;52.066;5.358;2023-11-22T10:07:06;42.78;;;24.65;;
44446;SDS011;30152;52.066;5.358;2023-11-22T10:09:34;41.47;;;22.55;;
44446;SDS011;30152;52.066;5.358;2023-11-22T10:12:02;41.92;;;23.45;;
44446;SDS011;30152;52.066;5.358;2023-11-22T10:14:29;44.38;;;24.75;;
44446;SDS011;30152;52.066;5.358;2023-11-22T10:16:59;43.00;;;24.88;;
44446;SDS011;30152;52.066;5.358;2023-11-22T10:19:25;47.72;;;24.25;;
44446;SDS011;30152;52.066;5.358;2023-11-22T10:22:04;41.35;;;23.83;;
44446;SDS011;30152;52.066;5.358;2023-11-22T10:24:34;47.20;;;24.60;;
44446;SDS011;30152;52.066;5.358;2023-11-22T10:27:01;36.58;;;21.45;;
44446;SDS011;30152;52.066;5.358;2023-11-22T10:29:27;42.37;;;23.07;;
44446;SDS011;30152;52.066;5.358;2023-11-22T10:31:53;43.10;;;23.33;;
44446;SDS011;30152;52.066;5.358;2023-11-22T10:34:20;41.95;;;24.02;;
44446;SDS011;30152;52.066;5.358;2023-11-22T10:36:47;43.25;;;23.67;;
44446;SDS011;30152;52.066;5.358;2023-11-22T10:39:14;40.22;;;22.92;;
44446;SDS011;30152;52.066;5.358;2023-11-22T10:41:44;43.93;;;23.57;;
44446;SDS011;30152;52.066;5.358;2023-11-22T10:44:12;41.80;;;22.40;;
44446;SDS011;30152;52.066;5.358;2023-11-22T10:46:40;44.03;;;22.42;;
44446;SDS011;30152;52.066;5.358;2023-11-22T10:49:06;37.75;;;21.30;;
44446;SDS011;30152;52.066;5.358;2023-11-22T10:51:32;35.87;;;20.63;;
44446;SDS011;30152;52.066;5.358;2023-11-22T10:53:58;36.17;;;20.67;;
44446;SDS011;30152;52.066;5.358;2023-11-22T10:56:28;34.40;;;19.20;;
44446;SDS011;30152;52.066;5.358;2023-11-22T10:59:06;34.50;;;20.45;;
44446;SDS011;30152;52.066;5.358;2023-11-22T11:01:45;34.05;;;19.70;;
44446;SDS011;30152;52.066;5.358;2023-11-22T11:04:47;35.47;;;20.38;;
44446;SDS011;30152;52.066;5.358;2023-11-22T11:07:12;33.85;;;18.85;;
44446;SDS011;30152;52.066;5.358;2023-11-22T11:09:40;31.05;;;19.40;;
44446;SDS011;30152;52.066;5.358;2023-11-22T11:12:06;31.02;;;18.38;;
44446;SDS011;30152;52.066;5.358;2023-11-22T11:14:32;28.10;;;17.92;;
44446;SDS011;30152;52.066;5.358;2023-11-22T11:16:59;27.33;;;16.08;;
44446;SDS011;30152;52.066;5.358;2023-11-22T11:19:27;26.85;;;16.25;;
44446;SDS011;30152;52.066;5.358;2023-11-22T11:21:54;27.27;;;16.37;;
44446;SDS011;30152;52.066;5.358;2023-11-22T11:24:22;25.63;;;16.30;;
44446;SDS011;30152;52.066;5.358;2023-11-22T11:26:48;25.77;;;16.13;;
44446;SDS011;30152;52.066;5.358;2023-11-22T11:29:38;28.20;;;16.38;;
44446;SDS011;30152;52.066;5.358;2023-11-22T11:32:11;26.65;;;16.50;;
44446;SDS011;30152;52.066;5.358;2023-11-22T11:34:50;27.33;;;17.10;;
44446;SDS011;30152;52.066;5.358;2023-11-22T11:37:17;28.55;;;17.52;;
44446;SDS011;30152;52.066;5.358;2023-11-22T11:39:44;29.45;;;17.65;;
44446;SDS011;30152;52.066;5.358;2023-11-22T11:42:10;28.75;;;17.30;;
44446;SDS011;30152;52.066;5.358;2023-11-22T11:44:50;27.25;;;17.27;;
44446;SDS011;30152;52.066;5.358;2023-11-22T11:47:21;27.60;;;15.98;;
44446;SDS011;30152;52.066;5.358;2023-11-22T11:49:48;28.60;;;17.27;;
44446;SDS011;30152;52.066;5.358;2023-11-22T11:52:17;28.60;;;16.63;;
44446;SDS011;30152;52.066;5.358;2023-11-22T11:54:43;29.60;;;16.87;;
44446;SDS011;30152;52.066;5.358;2023-11-22T11:57:09;28.55;;;17.60;;
44446;SDS011;30152;52.066;5.358;2023-11-22T11:59:35;29.20;;;16.70;;
44446;SDS011;30152;52.066;5.358;2023-11-22T12:02:01;30.60;;;17.60;;
44446;SDS011;30152;52.066;5.358;2023-11-22T12:04:30;30.75;;;17.85;;
44446;SDS011;30152;52.066;5.358;2023-11-22T12:06:56;25.58;;;14.93;;
44446;SDS011;30152;52.066;5.358;2023-11-22T12:09:23;28.65;;;15.48;;
44446;SDS011;30152;52.066;5.358;2023-11-22T12:11:50;30.35;;;18.00;;
44446;SDS011;30152;52.066;5.358;2023-11-22T12:14:18;30.77;;;18.60;;
44446;SDS011;30152;52.066;5.358;2023-11-22T12:16:51;31.52;;;19.13;;
44446;SDS011;30152;52.066;5.358;2023-11-22T12:19:23;32.33;;;20.02;;
44446;SDS011;30152;52.066;5.358;2023-11-22T12:21:51;34.97;;;20.92;;
44446;SDS011;30152;52.066;5.358;2023-11-22T12:24:17;31.58;;;20.00;;
44446;SDS011;30152;52.066;5.358;2023-11-22T12:26:47;33.20;;;19.98;;
44446;SDS011;30152;52.066;5.358;2023-11-22T12:29:16;31.83;;;17.70;;
44446;SDS011;30152;52.066;5.358;2023-11-22T12:31:45;34.28;;;17.50;;
44446;SDS011;30152;52.066;5.358;2023-11-22T12:34:15;35.10;;;18.20;;
44446;SDS011;30152;52.066;5.358;2023-11-22T12:36:42;34.95;;;18.05;;
44446;SDS011;30152;52.066;5.358;2023-11-22T12:39:10;39.15;;;17.98;;
44446;SDS011;30152;52.066;5.358;2023-11-22T12:41:46;33.72;;;17.42;;
